sensor_id;sensor_type;location;lat;lon;timestamp;temperature;humidity
69206;SHT30;56319;48.920;2.332;2024-02-15T00:00:16;13.98;67.89
69206;SHT30;56319;48.920;2.332;2024-02-15T00:02:43;13.96;67.90
69206;SHT30;56319;48.920;2.332;2024-02-15T00:05:11;13.99;67.86
69206;SHT30;56319;48.920;2.332;2024-02-15T00:07:38;13.98;67.84
69206;SHT30;56319;48.920;2.332;2024-02-15T00:10:04;13.96;67.89
69206;SHT30;56319;48.920;2.332;2024-02-15T00:12:34;13.96;67.88
69206;SHT30;56319;48.920;2.332;2024-02-15T00:15:00;13.96;67.86
69206;SHT30;56319;48.920;2.332;2024-02-15T00:17:27;13.95;67.80
69206;SHT30;56319;48.920;2.332;2024-02-15T00:19:55;13.95;67.74
69206;SHT30;56319;48.920;2.332;2024-02-15T00:22:21;13.96;67.69
69206;SHT30;56319;48.920;2.332;2024-02-15T00:24:47;13.95;67.75
69206;SHT30;56319;48.920;2.332;2024-02-15T00:27:15;13.96;67.74
69206;SHT30;56319;48.920;2.332;2024-02-15T00:29:41;13.96;67.76
69206;SHT30;56319;48.920;2.332;2024-02-15T00:32:09;13.95;67.72
69206;SHT30;56319;48.920;2.332;2024-02-15T00:34:37;13.96;67.72
69206;SHT30;56319;48.920;2.332;2024-02-15T00:37:04;13.95;67.75
69206;SHT30;56319;48.920;2.332;2024-02-15T00:39:31;13.95;67.80
69206;SHT30;56319;48.920;2.332;2024-02-15T00:41:58;13.93;67.79
69206;SHT30;56319;48.920;2.332;2024-02-15T00:44:27;13.93;67.76
69206;SHT30;56319;48.920;2.332;2024-02-15T00:46:53;13.93;67.80
69206;SHT30;56319;48.920;2.332;2024-02-15T00:49:19;13.92;67.84
69206;SHT30;56319;48.920;2.332;2024-02-15T00:51:46;13.93;67.90
69206;SHT30;56319;48.920;2.332;2024-02-15T00:54:12;13.95;67.84
69206;SHT30;56319;48.920;2.332;2024-02-15T00:56:38;13.93;67.81
69206;SHT30;56319;48.920;2.332;2024-02-15T00:59:05;13.93;67.80
69206;SHT30;56319;48.920;2.332;2024-02-15T01:01:31;13.93;67.86
69206;SHT30;56319;48.920;2.332;2024-02-15T01:03:58;13.93;67.76
69206;SHT30;56319;48.920;2.332;2024-02-15T01:09:42;13.95;67.81
69206;SHT30;56319;48.920;2.332;2024-02-15T01:12:08;13.92;67.89
69206;SHT30;56319;48.920;2.332;2024-02-15T01:14:37;13.93;67.90
69206;SHT30;56319;48.920;2.332;2024-02-15T01:17:03;13.95;67.91
69206;SHT30;56319;48.920;2.332;2024-02-15T01:19:29;13.92;67.87
69206;SHT30;56319;48.920;2.332;2024-02-15T01:21:56;13.93;67.86
69206;SHT30;56319;48.920;2.332;2024-02-15T01:24:23;13.92;67.78
69206;SHT30;56319;48.920;2.332;2024-02-15T01:26:50;13.93;67.73
69206;SHT30;56319;48.920;2.332;2024-02-15T01:29:16;13.92;67.75
69206;SHT30;56319;48.920;2.332;2024-02-15T01:31:42;13.90;67.74
69206;SHT30;56319;48.920;2.332;2024-02-15T01:34:08;13.93;67.70
69206;SHT30;56319;48.920;2.332;2024-02-15T01:36:34;13.92;67.72
69206;SHT30;56319;48.920;2.332;2024-02-15T01:39:00;13.93;67.78
69206;SHT30;56319;48.920;2.332;2024-02-15T01:41:26;13.93;67.73
69206;SHT30;56319;48.920;2.332;2024-02-15T01:43:52;13.92;67.73
69206;SHT30;56319;48.920;2.332;2024-02-15T01:46:19;13.95;67.70
69206;SHT30;56319;48.920;2.332;2024-02-15T01:48:47;13.92;67.73
69206;SHT30;56319;48.920;2.332;2024-02-15T01:51:15;13.92;67.70
69206;SHT30;56319;48.920;2.332;2024-02-15T01:53:43;13.92;67.72
69206;SHT30;56319;48.920;2.332;2024-02-15T01:56:13;13.95;67.68
69206;SHT30;56319;48.920;2.332;2024-02-15T01:58:40;13.92;67.72
69206;SHT30;56319;48.920;2.332;2024-02-15T02:01:07;13.95;67.62
69206;SHT30;56319;48.920;2.332;2024-02-15T02:03:33;13.90;67.64
69206;SHT30;56319;48.920;2.332;2024-02-15T02:06:00;13.89;67.65
69206;SHT30;56319;48.920;2.332;2024-02-15T02:08:27;13.90;67.62
69206;SHT30;56319;48.920;2.332;2024-02-15T02:10:53;13.93;67.61
69206;SHT30;56319;48.920;2.332;2024-02-15T02:13:21;13.90;67.61
69206;SHT30;56319;48.920;2.332;2024-02-15T02:15:47;13.90;67.63
69206;SHT30;56319;48.920;2.332;2024-02-15T02:18:13;13.93;67.60
69206;SHT30;56319;48.920;2.332;2024-02-15T02:20:39;13.90;67.58
69206;SHT30;56319;48.920;2.332;2024-02-15T02:23:13;13.92;67.61
69206;SHT30;56319;48.920;2.332;2024-02-15T02:25:40;13.89;67.58
69206;SHT30;56319;48.920;2.332;2024-02-15T02:28:16;13.89;67.57
69206;SHT30;56319;48.920;2.332;2024-02-15T02:30:42;13.90;67.57
69206;SHT30;56319;48.920;2.332;2024-02-15T02:33:11;13.89;67.56
69206;SHT30;56319;48.920;2.332;2024-02-15T02:35:44;13.89;67.62
69206;SHT30;56319;48.920;2.332;2024-02-15T02:38:11;13.89;67.52
69206;SHT30;56319;48.920;2.332;2024-02-15T02:40:36;13.90;67.55
69206;SHT30;56319;48.920;2.332;2024-02-15T02:43:02;13.90;67.56
69206;SHT30;56319;48.920;2.332;2024-02-15T02:45:28;13.89;67.53
69206;SHT30;56319;48.920;2.332;2024-02-15T02:47:54;13.90;67.56
69206;SHT30;56319;48.920;2.332;2024-02-15T02:50:21;13.92;67.51
69206;SHT30;56319;48.920;2.332;2024-02-15T02:52:48;13.87;67.53
69206;SHT30;56319;48.920;2.332;2024-02-15T02:55:15;13.89;67.55
69206;SHT30;56319;48.920;2.332;2024-02-15T02:57:41;13.89;67.56
69206;SHT30;56319;48.920;2.332;2024-02-15T03:00:11;13.89;67.51
69206;SHT30;56319;48.920;2.332;2024-02-15T03:02:39;13.89;67.53
69206;SHT30;56319;48.920;2.332;2024-02-15T03:05:05;13.89;67.57
69206;SHT30;56319;48.920;2.332;2024-02-15T03:07:34;13.89;67.50
69206;SHT30;56319;48.920;2.332;2024-02-15T03:10:01;13.86;67.50
69206;SHT30;56319;48.920;2.332;2024-02-15T03:12:30;13.89;67.51
69206;SHT30;56319;48.920;2.332;2024-02-15T03:14:56;13.87;67.53
69206;SHT30;56319;48.920;2.332;2024-02-15T03:17:23;13.89;67.52
69206;SHT30;56319;48.920;2.332;2024-02-15T03:19:49;13.90;67.47
69206;SHT30;56319;48.920;2.332;2024-02-15T03:22:16;13.87;67.50
69206;SHT30;56319;48.920;2.332;2024-02-15T03:24:42;13.90;67.54
69206;SHT30;56319;48.920;2.332;2024-02-15T03:27:08;13.89;67.52
69206;SHT30;56319;48.920;2.332;2024-02-15T03:29:36;13.89;67.48
69206;SHT30;56319;48.920;2.332;2024-02-15T03:32:02;13.89;67.46
69206;SHT30;56319;48.920;2.332;2024-02-15T03:34:30;13.89;67.45
69206;SHT30;56319;48.920;2.332;2024-02-15T03:36:57;13.87;67.48
69206;SHT30;56319;48.920;2.332;2024-02-15T03:39:24;13.90;67.47
69206;SHT30;56319;48.920;2.332;2024-02-15T03:41:50;13.87;67.43
69206;SHT30;56319;48.920;2.332;2024-02-15T03:44:18;13.90;67.42
69206;SHT30;56319;48.920;2.332;2024-02-15T03:46:45;13.87;67.44
69206;SHT30;56319;48.920;2.332;2024-02-15T03:49:19;13.89;67.44
69206;SHT30;56319;48.920;2.332;2024-02-15T03:51:45;13.86;67.44
69206;SHT30;56319;48.920;2.332;2024-02-15T03:54:12;13.87;67.42
69206;SHT30;56319;48.920;2.332;2024-02-15T03:56:58;13.86;67.41
69206;SHT30;56319;48.920;2.332;2024-02-15T03:59:24;13.89;67.39
69206;SHT30;56319;48.920;2.332;2024-02-15T04:01:54;13.87;67.39
69206;SHT30;56319;48.920;2.332;2024-02-15T04:04:20;13.87;67.38
69206;SHT30;56319;48.920;2.332;2024-02-15T04:06:48;13.87;67.43
69206;SHT30;56319;48.920;2.332;2024-02-15T04:09:15;13.87;67.47
69206;SHT30;56319;48.920;2.332;2024-02-15T04:11:43;13.89;67.43
69206;SHT30;56319;48.920;2.332;2024-02-15T04:14:11;13.86;67.41
69206;SHT30;56319;48.920;2.332;2024-02-15T04:16:37;13.85;67.43
69206;SHT30;56319;48.920;2.332;2024-02-15T04:19:03;13.86;67.39
69206;SHT30;56319;48.920;2.332;2024-02-15T04:21:29;13.86;67.38
69206;SHT30;56319;48.920;2.332;2024-02-15T04:23:56;13.89;67.39
69206;SHT30;56319;48.920;2.332;2024-02-15T04:26:22;13.87;67.35
69206;SHT30;56319;48.920;2.332;2024-02-15T04:28:53;13.86;67.34
69206;SHT30;56319;48.920;2.332;2024-02-15T04:31:19;13.87;67.36
69206;SHT30;56319;48.920;2.332;2024-02-15T04:33:54;13.89;67.34
69206;SHT30;56319;48.920;2.332;2024-02-15T04:36:20;13.86;67.34
69206;SHT30;56319;48.920;2.332;2024-02-15T04:38:50;13.86;67.33
69206;SHT30;56319;48.920;2.332;2024-02-15T04:41:17;13.87;67.35
69206;SHT30;56319;48.920;2.332;2024-02-15T04:43:47;13.85;67.34
69206;SHT30;56319;48.920;2.332;2024-02-15T04:46:16;13.85;67.33
69206;SHT30;56319;48.920;2.332;2024-02-15T04:48:42;13.87;67.32
69206;SHT30;56319;48.920;2.332;2024-02-15T04:51:09;13.86;67.34
69206;SHT30;56319;48.920;2.332;2024-02-15T04:53:36;13.83;67.36
69206;SHT30;56319;48.920;2.332;2024-02-15T04:56:05;13.86;67.35
69206;SHT30;56319;48.920;2.332;2024-02-15T04:58:39;13.89;67.37
69206;SHT30;56319;48.920;2.332;2024-02-15T05:01:25;13.89;67.34
69206;SHT30;56319;48.920;2.332;2024-02-15T05:03:51;13.85;67.32
69206;SHT30;56319;48.920;2.332;2024-02-15T05:06:17;13.83;67.32
69206;SHT30;56319;48.920;2.332;2024-02-15T05:08:44;13.86;67.29
69206;SHT30;56319;48.920;2.332;2024-02-15T05:11:12;13.87;67.30
69206;SHT30;56319;48.920;2.332;2024-02-15T05:13:44;13.86;67.29
69206;SHT30;56319;48.920;2.332;2024-02-15T05:16:12;13.83;67.29
69206;SHT30;56319;48.920;2.332;2024-02-15T05:18:37;13.86;67.28
69206;SHT30;56319;48.920;2.332;2024-02-15T05:21:06;13.85;67.30
69206;SHT30;56319;48.920;2.332;2024-02-15T05:23:36;13.83;67.29
69206;SHT30;56319;48.920;2.332;2024-02-15T05:26:03;13.85;67.26
69206;SHT30;56319;48.920;2.332;2024-02-15T05:28:29;13.85;67.26
69206;SHT30;56319;48.920;2.332;2024-02-15T05:31:16;13.86;67.25
69206;SHT30;56319;48.920;2.332;2024-02-15T05:33:43;13.85;67.26
69206;SHT30;56319;48.920;2.332;2024-02-15T05:36:12;13.83;67.27
69206;SHT30;56319;48.920;2.332;2024-02-15T05:38:38;13.86;67.29
69206;SHT30;56319;48.920;2.332;2024-02-15T05:41:05;13.85;67.24
69206;SHT30;56319;48.920;2.332;2024-02-15T05:43:33;13.85;67.24
69206;SHT30;56319;48.920;2.332;2024-02-15T05:46:02;13.86;67.22
69206;SHT30;56319;48.920;2.332;2024-02-15T05:48:29;13.83;67.23
69206;SHT30;56319;48.920;2.332;2024-02-15T05:50:56;13.86;67.24
69206;SHT30;56319;48.920;2.332;2024-02-15T05:53:23;13.85;67.24
69206;SHT30;56319;48.920;2.332;2024-02-15T05:55:50;13.85;67.23
69206;SHT30;56319;48.920;2.332;2024-02-15T05:58:16;13.85;67.23
69206;SHT30;56319;48.920;2.332;2024-02-15T06:00:43;13.86;67.20
69206;SHT30;56319;48.920;2.332;2024-02-15T06:03:10;13.83;67.22
69206;SHT30;56319;48.920;2.332;2024-02-15T06:05:38;13.85;67.23
69206;SHT30;56319;48.920;2.332;2024-02-15T06:08:04;13.81;67.23
69206;SHT30;56319;48.920;2.332;2024-02-15T06:10:30;13.85;67.22
69206;SHT30;56319;48.920;2.332;2024-02-15T06:12:56;13.85;67.22
69206;SHT30;56319;48.920;2.332;2024-02-15T06:15:25;13.83;67.19
69206;SHT30;56319;48.920;2.332;2024-02-15T06:17:51;13.83;67.18
69206;SHT30;56319;48.920;2.332;2024-02-15T06:20:17;13.82;67.17
69206;SHT30;56319;48.920;2.332;2024-02-15T06:22:47;13.83;67.18
69206;SHT30;56319;48.920;2.332;2024-02-15T06:25:14;13.82;67.19
69206;SHT30;56319;48.920;2.332;2024-02-15T06:27:41;13.81;67.19
69206;SHT30;56319;48.920;2.332;2024-02-15T06:30:09;13.85;67.18
69206;SHT30;56319;48.920;2.332;2024-02-15T06:32:55;13.83;67.17
69206;SHT30;56319;48.920;2.332;2024-02-15T06:35:42;13.83;67.17
69206;SHT30;56319;48.920;2.332;2024-02-15T06:38:28;13.82;67.15
69206;SHT30;56319;48.920;2.332;2024-02-15T06:41:14;13.82;67.18
69206;SHT30;56319;48.920;2.332;2024-02-15T06:43:39;13.82;67.15
69206;SHT30;56319;48.920;2.332;2024-02-15T06:46:06;13.82;67.18
69206;SHT30;56319;48.920;2.332;2024-02-15T06:48:33;13.82;67.13
69206;SHT30;56319;48.920;2.332;2024-02-15T06:50:59;13.83;67.12
69206;SHT30;56319;48.920;2.332;2024-02-15T06:53:25;13.82;67.16
69206;SHT30;56319;48.920;2.332;2024-02-15T06:55:51;13.82;67.12
69206;SHT30;56319;48.920;2.332;2024-02-15T06:58:17;13.82;67.12
69206;SHT30;56319;48.920;2.332;2024-02-15T07:00:44;13.83;67.13
69206;SHT30;56319;48.920;2.332;2024-02-15T07:03:10;13.82;67.11
69206;SHT30;56319;48.920;2.332;2024-02-15T07:05:37;13.83;67.11
69206;SHT30;56319;48.920;2.332;2024-02-15T07:08:05;13.82;67.09
69206;SHT30;56319;48.920;2.332;2024-02-15T07:10:31;13.82;67.09
69206;SHT30;56319;48.920;2.332;2024-02-15T07:12:57;13.83;67.07
69206;SHT30;56319;48.920;2.332;2024-02-15T07:15:23;13.79;67.10
69206;SHT30;56319;48.920;2.332;2024-02-15T07:17:49;13.78;67.10
69206;SHT30;56319;48.920;2.332;2024-02-15T07:20:19;13.81;67.07
69206;SHT30;56319;48.920;2.332;2024-02-15T07:22:47;13.83;67.05
69206;SHT30;56319;48.920;2.332;2024-02-15T07:25:13;13.82;67.04
69206;SHT30;56319;48.920;2.332;2024-02-15T07:27:39;13.81;67.09
69206;SHT30;56319;48.920;2.332;2024-02-15T07:30:06;13.79;67.02
69206;SHT30;56319;48.920;2.332;2024-02-15T07:32:35;13.79;67.04
69206;SHT30;56319;48.920;2.332;2024-02-15T07:35:01;13.81;67.07
69206;SHT30;56319;48.920;2.332;2024-02-15T07:37:27;13.81;67.05
69206;SHT30;56319;48.920;2.332;2024-02-15T07:39:54;13.79;67.01
69206;SHT30;56319;48.920;2.332;2024-02-15T07:42:20;13.82;67.00
69206;SHT30;56319;48.920;2.332;2024-02-15T07:44:51;13.82;67.02
69206;SHT30;56319;48.920;2.332;2024-02-15T07:47:18;13.82;67.00
69206;SHT30;56319;48.920;2.332;2024-02-15T07:49:46;13.82;66.98
69206;SHT30;56319;48.920;2.332;2024-02-15T07:52:12;13.82;67.01
69206;SHT30;56319;48.920;2.332;2024-02-15T07:54:39;13.81;66.97
69206;SHT30;56319;48.920;2.332;2024-02-15T07:57:05;13.82;67.01
69206;SHT30;56319;48.920;2.332;2024-02-15T07:59:31;13.82;66.98
69206;SHT30;56319;48.920;2.332;2024-02-15T08:01:57;13.81;66.95
69206;SHT30;56319;48.920;2.332;2024-02-15T08:04:23;13.82;66.99
69206;SHT30;56319;48.920;2.332;2024-02-15T08:06:50;13.82;66.93
69206;SHT30;56319;48.920;2.332;2024-02-15T08:09:19;13.83;66.91
69206;SHT30;56319;48.920;2.332;2024-02-15T08:11:48;13.82;66.92
69206;SHT30;56319;48.920;2.332;2024-02-15T08:14:14;13.82;66.92
69206;SHT30;56319;48.920;2.332;2024-02-15T08:16:40;13.79;66.90
69206;SHT30;56319;48.920;2.332;2024-02-15T08:19:06;13.81;66.94
69206;SHT30;56319;48.920;2.332;2024-02-15T08:21:34;13.85;66.91
69206;SHT30;56319;48.920;2.332;2024-02-15T08:24:03;13.82;66.92
69206;SHT30;56319;48.920;2.332;2024-02-15T08:26:32;13.83;66.90
69206;SHT30;56319;48.920;2.332;2024-02-15T08:28:58;13.83;66.90
69206;SHT30;56319;48.920;2.332;2024-02-15T08:31:24;13.83;66.88
69206;SHT30;56319;48.920;2.332;2024-02-15T08:33:50;13.83;66.87
69206;SHT30;56319;48.920;2.332;2024-02-15T08:36:16;13.83;66.85
69206;SHT30;56319;48.920;2.332;2024-02-15T08:38:42;13.83;66.86
69206;SHT30;56319;48.920;2.332;2024-02-15T08:41:08;13.86;66.86
69206;SHT30;56319;48.920;2.332;2024-02-15T08:43:36;13.85;66.83
69206;SHT30;56319;48.920;2.332;2024-02-15T08:46:05;13.86;66.84
69206;SHT30;56319;48.920;2.332;2024-02-15T08:48:32;13.82;66.86
69206;SHT30;56319;48.920;2.332;2024-02-15T08:50:59;13.82;66.84
69206;SHT30;56319;48.920;2.332;2024-02-15T08:53:25;13.83;66.86
69206;SHT30;56319;48.920;2.332;2024-02-15T08:55:52;13.82;66.84
69206;SHT30;56319;48.920;2.332;2024-02-15T08:58:19;13.85;66.80
69206;SHT30;56319;48.920;2.332;2024-02-15T09:00:47;13.83;66.79
69206;SHT30;56319;48.920;2.332;2024-02-15T09:03:12;13.87;66.79
69206;SHT30;56319;48.920;2.332;2024-02-15T09:05:40;13.87;66.80
69206;SHT30;56319;48.920;2.332;2024-02-15T09:08:06;13.85;66.79
69206;SHT30;56319;48.920;2.332;2024-02-15T09:10:32;13.86;66.80
69206;SHT30;56319;48.920;2.332;2024-02-15T09:12:58;13.85;66.79
69206;SHT30;56319;48.920;2.332;2024-02-15T09:15:24;13.87;66.76
69206;SHT30;56319;48.920;2.332;2024-02-15T09:17:50;13.89;66.74
69206;SHT30;56319;48.920;2.332;2024-02-15T09:20:17;13.89;66.70
69206;SHT30;56319;48.920;2.332;2024-02-15T09:22:49;13.90;66.69
69206;SHT30;56319;48.920;2.332;2024-02-15T09:25:15;13.89;66.71
69206;SHT30;56319;48.920;2.332;2024-02-15T09:27:42;13.92;66.69
69206;SHT30;56319;48.920;2.332;2024-02-15T09:30:09;13.90;66.64
69206;SHT30;56319;48.920;2.332;2024-02-15T09:32:36;13.93;66.64
69206;SHT30;56319;48.920;2.332;2024-02-15T09:35:03;13.93;66.62
69206;SHT30;56319;48.920;2.332;2024-02-15T09:37:36;13.93;66.60
69206;SHT30;56319;48.920;2.332;2024-02-15T09:40:08;13.96;66.56
69206;SHT30;56319;48.920;2.332;2024-02-15T09:42:35;13.95;66.59
69206;SHT30;56319;48.920;2.332;2024-02-15T09:45:03;13.98;66.52
69206;SHT30;56319;48.920;2.332;2024-02-15T09:47:34;13.99;66.47
69206;SHT30;56319;48.920;2.332;2024-02-15T09:50:02;13.99;66.45
69206;SHT30;56319;48.920;2.332;2024-02-15T09:52:29;14.00;66.44
69206;SHT30;56319;48.920;2.332;2024-02-15T09:54:58;14.03;66.41
69206;SHT30;56319;48.920;2.332;2024-02-15T09:57:25;14.03;66.37
69206;SHT30;56319;48.920;2.332;2024-02-15T09:59:53;14.05;66.33
69206;SHT30;56319;48.920;2.332;2024-02-15T10:02:20;14.05;66.28
69206;SHT30;56319;48.920;2.332;2024-02-15T10:04:47;14.08;66.20
69206;SHT30;56319;48.920;2.332;2024-02-15T10:07:13;14.10;66.17
69206;SHT30;56319;48.920;2.332;2024-02-15T10:09:39;14.10;66.10
69206;SHT30;56319;48.920;2.332;2024-02-15T10:12:08;14.13;66.01
69206;SHT30;56319;48.920;2.332;2024-02-15T10:14:35;14.13;66.04
69206;SHT30;56319;48.920;2.332;2024-02-15T10:17:21;14.17;65.99
69206;SHT30;56319;48.920;2.332;2024-02-15T10:20:07;14.16;65.92
69206;SHT30;56319;48.920;2.332;2024-02-15T10:22:35;14.19;65.89
69206;SHT30;56319;48.920;2.332;2024-02-15T10:25:21;14.17;65.91
69206;SHT30;56319;48.920;2.332;2024-02-15T10:27:48;14.19;65.85
69206;SHT30;56319;48.920;2.332;2024-02-15T10:30:15;14.21;65.81
69206;SHT30;56319;48.920;2.332;2024-02-15T10:32:41;14.23;65.75
69206;SHT30;56319;48.920;2.332;2024-02-15T10:35:07;14.26;65.72
69206;SHT30;56319;48.920;2.332;2024-02-15T10:37:33;14.27;65.72
69206;SHT30;56319;48.920;2.332;2024-02-15T10:40:20;14.30;65.66
69206;SHT30;56319;48.920;2.332;2024-02-15T10:42:47;14.30;65.58
69206;SHT30;56319;48.920;2.332;2024-02-15T10:45:15;14.33;65.60
69206;SHT30;56319;48.920;2.332;2024-02-15T10:47:45;14.33;65.61
69206;SHT30;56319;48.920;2.332;2024-02-15T10:50:13;14.38;65.57
69206;SHT30;56319;48.920;2.332;2024-02-15T10:52:48;14.40;65.48
69206;SHT30;56319;48.920;2.332;2024-02-15T10:55:25;14.41;65.49
69206;SHT30;56319;48.920;2.332;2024-02-15T10:57:52;14.42;65.43
69206;SHT30;56319;48.920;2.332;2024-02-15T11:00:21;14.44;65.35
69206;SHT30;56319;48.920;2.332;2024-02-15T11:05:18;14.49;65.29
69206;SHT30;56319;48.920;2.332;2024-02-15T11:07:48;14.52;65.29
69206;SHT30;56319;48.920;2.332;2024-02-15T11:10:14;14.55;65.28
69206;SHT30;56319;48.920;2.332;2024-02-15T11:12:43;14.60;65.23
69206;SHT30;56319;48.920;2.332;2024-02-15T11:15:10;14.60;65.10
69206;SHT30;56319;48.920;2.332;2024-02-15T11:20:46;14.65;64.93
69206;SHT30;56319;48.920;2.332;2024-02-15T11:23:23;14.65;64.92
69206;SHT30;56319;48.920;2.332;2024-02-15T11:25:50;14.69;64.82
69206;SHT30;56319;48.920;2.332;2024-02-15T11:28:37;14.72;64.72
69206;SHT30;56319;48.920;2.332;2024-02-15T11:31:07;14.73;64.66
69206;SHT30;56319;48.920;2.332;2024-02-15T11:33:35;14.72;64.68
69206;SHT30;56319;48.920;2.332;2024-02-15T11:36:04;14.76;64.70
69206;SHT30;56319;48.920;2.332;2024-02-15T11:38:31;14.75;64.65
69206;SHT30;56319;48.920;2.332;2024-02-15T11:41:04;14.78;64.61
69206;SHT30;56319;48.920;2.332;2024-02-15T11:43:51;14.79;64.58
69206;SHT30;56319;48.920;2.332;2024-02-15T11:46:22;14.81;64.52
69206;SHT30;56319;48.920;2.332;2024-02-15T11:48:51;14.81;64.54
69206;SHT30;56319;48.920;2.332;2024-02-15T11:51:37;14.85;64.52
69206;SHT30;56319;48.920;2.332;2024-02-15T11:54:09;14.90;64.51
69206;SHT30;56319;48.920;2.332;2024-02-15T11:56:56;14.93;64.43
69206;SHT30;56319;48.920;2.332;2024-02-15T11:59:43;14.98;64.38
69206;SHT30;56319;48.920;2.332;2024-02-15T12:02:20;14.98;64.30
69206;SHT30;56319;48.920;2.332;2024-02-15T12:05:06;15.00;64.23
69206;SHT30;56319;48.920;2.332;2024-02-15T12:07:53;15.06;64.18
69206;SHT30;56319;48.920;2.332;2024-02-15T12:10:38;15.09;64.19
69206;SHT30;56319;48.920;2.332;2024-02-15T12:13:24;15.14;64.12
69206;SHT30;56319;48.920;2.332;2024-02-15T12:16:10;15.17;63.96
69206;SHT30;56319;48.920;2.332;2024-02-15T12:19:01;15.20;63.88
69206;SHT30;56319;48.920;2.332;2024-02-15T12:21:29;15.24;63.86
69206;SHT30;56319;48.920;2.332;2024-02-15T12:23:55;15.30;63.79
69206;SHT30;56319;48.920;2.332;2024-02-15T12:26:22;15.33;63.70
69206;SHT30;56319;48.920;2.332;2024-02-15T12:28:52;15.41;63.61
69206;SHT30;56319;48.920;2.332;2024-02-15T12:31:22;15.44;63.57
69206;SHT30;56319;48.920;2.332;2024-02-15T12:34:11;15.51;63.47
69206;SHT30;56319;48.920;2.332;2024-02-15T12:36:39;15.55;63.34
69206;SHT30;56319;48.920;2.332;2024-02-15T12:39:06;15.61;63.17
69206;SHT30;56319;48.920;2.332;2024-02-15T12:41:52;15.66;63.10
69206;SHT30;56319;48.920;2.332;2024-02-15T12:44:18;15.71;62.90
69206;SHT30;56319;48.920;2.332;2024-02-15T12:46:46;15.78;62.88
69206;SHT30;56319;48.920;2.332;2024-02-15T12:49:33;15.83;62.72
69206;SHT30;56319;48.920;2.332;2024-02-15T12:55:12;15.97;62.56
69206;SHT30;56319;48.920;2.332;2024-02-15T12:57:40;16.03;62.41
69206;SHT30;56319;48.920;2.332;2024-02-15T13:00:09;16.09;62.28
69206;SHT30;56319;48.920;2.332;2024-02-15T13:02:44;16.17;62.11
69206;SHT30;56319;48.920;2.332;2024-02-15T13:05:10;16.25;61.96
69206;SHT30;56319;48.920;2.332;2024-02-15T13:07:37;16.34;61.86
69206;SHT30;56319;48.920;2.332;2024-02-15T13:10:04;16.40;61.69
69206;SHT30;56319;48.920;2.332;2024-02-15T13:12:34;16.51;61.54
69206;SHT30;56319;48.920;2.332;2024-02-15T13:15:02;16.61;61.26
69206;SHT30;56319;48.920;2.332;2024-02-15T13:17:29;16.68;61.07
69206;SHT30;56319;48.920;2.332;2024-02-15T13:19:55;16.76;60.93
69206;SHT30;56319;48.920;2.332;2024-02-15T13:22:31;16.83;60.76
69206;SHT30;56319;48.920;2.332;2024-02-15T13:24:58;16.93;60.62
69206;SHT30;56319;48.920;2.332;2024-02-15T13:27:24;16.97;60.45
69206;SHT30;56319;48.920;2.332;2024-02-15T13:29:50;16.99;60.33
69206;SHT30;56319;48.920;2.332;2024-02-15T13:32:16;17.00;60.22
69206;SHT30;56319;48.920;2.332;2024-02-15T13:34:48;16.99;60.20
69206;SHT30;56319;48.920;2.332;2024-02-15T13:37:20;16.96;60.16
69206;SHT30;56319;48.920;2.332;2024-02-15T13:39:47;17.00;60.14
69206;SHT30;56319;48.920;2.332;2024-02-15T13:42:14;16.99;60.15
69206;SHT30;56319;48.920;2.332;2024-02-15T13:44:46;16.99;60.12
69206;SHT30;56319;48.920;2.332;2024-02-15T13:47:17;17.02;60.12
69206;SHT30;56319;48.920;2.332;2024-02-15T13:49:43;17.04;60.07
69206;SHT30;56319;48.920;2.332;2024-02-15T13:52:09;17.10;60.01
69206;SHT30;56319;48.920;2.332;2024-02-15T13:54:39;17.09;59.97
69206;SHT30;56319;48.920;2.332;2024-02-15T13:57:07;17.12;59.89
69206;SHT30;56319;48.920;2.332;2024-02-15T13:59:33;17.14;59.85
69206;SHT30;56319;48.920;2.332;2024-02-15T14:02:00;17.13;59.82
69206;SHT30;56319;48.920;2.332;2024-02-15T14:04:53;17.13;59.77
69206;SHT30;56319;48.920;2.332;2024-02-15T14:07:19;17.09;59.76
69206;SHT30;56319;48.920;2.332;2024-02-15T14:09:44;17.06;59.76
69206;SHT30;56319;48.920;2.332;2024-02-15T14:12:10;17.03;59.73
69206;SHT30;56319;48.920;2.332;2024-02-15T14:14:36;17.04;59.78
69206;SHT30;56319;48.920;2.332;2024-02-15T14:17:02;17.04;59.68
69206;SHT30;56319;48.920;2.332;2024-02-15T14:19:28;17.03;59.71
69206;SHT30;56319;48.920;2.332;2024-02-15T14:21:54;17.04;59.57
69206;SHT30;56319;48.920;2.332;2024-02-15T14:24:20;17.07;59.54
69206;SHT30;56319;48.920;2.332;2024-02-15T14:26:48;17.06;59.47
69206;SHT30;56319;48.920;2.332;2024-02-15T14:29:14;17.10;59.36
69206;SHT30;56319;48.920;2.332;2024-02-15T14:31:44;17.14;59.38
69206;SHT30;56319;48.920;2.332;2024-02-15T14:34:30;17.13;59.39
69206;SHT30;56319;48.920;2.332;2024-02-15T14:36:56;17.09;59.42
69206;SHT30;56319;48.920;2.332;2024-02-15T14:39:23;17.12;59.45
69206;SHT30;56319;48.920;2.332;2024-02-15T14:41:50;17.12;59.45
69206;SHT30;56319;48.920;2.332;2024-02-15T14:44:16;17.14;59.47
69206;SHT30;56319;48.920;2.332;2024-02-15T14:46:46;17.14;59.42
69206;SHT30;56319;48.920;2.332;2024-02-15T14:49:14;17.14;59.43
69206;SHT30;56319;48.920;2.332;2024-02-15T14:51:42;17.20;59.39
69206;SHT30;56319;48.920;2.332;2024-02-15T14:54:08;17.19;59.42
69206;SHT30;56319;48.920;2.332;2024-02-15T14:56:34;17.21;59.35
69206;SHT30;56319;48.920;2.332;2024-02-15T14:59:02;17.23;59.31
69206;SHT30;56319;48.920;2.332;2024-02-15T15:01:28;17.26;59.19
69206;SHT30;56319;48.920;2.332;2024-02-15T15:03:55;17.28;59.01
69206;SHT30;56319;48.920;2.332;2024-02-15T15:06:23;17.32;58.86
69206;SHT30;56319;48.920;2.332;2024-02-15T15:09:09;17.38;58.70
69206;SHT30;56319;48.920;2.332;2024-02-15T15:11:54;17.41;58.59
69206;SHT30;56319;48.920;2.332;2024-02-15T15:14:40;17.45;58.39
69206;SHT30;56319;48.920;2.332;2024-02-15T15:17:07;17.47;58.33
69206;SHT30;56319;48.920;2.332;2024-02-15T15:19:33;17.48;58.33
69206;SHT30;56319;48.920;2.332;2024-02-15T15:21:59;17.47;58.23
69206;SHT30;56319;48.920;2.332;2024-02-15T15:24:25;17.48;58.16
69206;SHT30;56319;48.920;2.332;2024-02-15T15:26:51;17.45;58.16
69206;SHT30;56319;48.920;2.332;2024-02-15T15:29:17;17.42;58.27
69206;SHT30;56319;48.920;2.332;2024-02-15T15:31:43;17.38;58.15
69206;SHT30;56319;48.920;2.332;2024-02-15T15:34:08;17.35;58.17
69206;SHT30;56319;48.920;2.332;2024-02-15T15:36:35;17.32;58.26
69206;SHT30;56319;48.920;2.332;2024-02-15T15:39:00;17.30;58.24
69206;SHT30;56319;48.920;2.332;2024-02-15T15:41:35;17.24;58.27
69206;SHT30;56319;48.920;2.332;2024-02-15T15:44:00;17.21;58.33
69206;SHT30;56319;48.920;2.332;2024-02-15T15:46:26;17.19;58.44
69206;SHT30;56319;48.920;2.332;2024-02-15T15:48:52;17.13;58.51
69206;SHT30;56319;48.920;2.332;2024-02-15T15:51:18;17.09;58.56